Time;durP1;ratioP1;P1;durP2;ratioP2;P2;SDS_P1;SDS_P2;PMS_P1;PMS_P2;Temp;Humidity;BMP_temperature;BMP_pressure;BME280_temperature;BME280_humidity;BME280_pressure;Samples;Min_cycle;Max_cycle;Signal;HPM_P1;HPM_P2
2024/02/20 00:01:48;;;;;;;3.45;2.95;;;10.00;99.90;;;;;;4922232;29;20187;-88
2024/02/20 00:04:17;;;;;;;5.00;3.97;;;11.30;99.90;;;;;;4923221;29;20589;-87
2024/02/20 00:06:43;;;;;;;3.58;3.13;;;9.90;99.90;;;;;;4923065;29;20207;-87
2024/02/20 00:09:09;;;;;;;3.05;2.70;;;9.90;99.90;;;;;;4933652;29;20226;-87
2024/02/20 00:11:34;;;;;;;4.13;3.07;;;9.80;99.90;;;;;;4928234;29;20186;-88
2024/02/20 00:14:00;;;;;;;4.43;3.33;;;9.70;99.90;;;;;;4924111;29;20218;-88
2024/02/20 00:16:25;;;;;;;3.50;2.93;;;10.30;99.90;;;;;;4927224;29;20201;-87
2024/02/20 00:18:51;;;;;;;3.10;2.77;;;10.20;99.90;;;;;;4923598;29;20191;-88
2024/02/20 00:21:17;;;;;;;4.20;2.60;;;9.50;99.90;;;;;;4923512;29;20187;-88
2024/02/20 00:23:43;;;;;;;4.87;3.33;;;10.00;99.90;;;;;;4922615;29;20596;-88
2024/02/20 00:26:09;;;;;;;4.32;3.17;;;10.20;99.90;;;;;;4922077;29;20306;-88
2024/02/20 00:28:40;;;;;;;4.95;3.40;;;9.60;99.90;;;;;;4924421;29;20191;-88
2024/02/20 00:31:06;;;;;;;3.50;3.13;;;9.60;99.90;;;;;;4929750;29;20193;-88
2024/02/20 00:33:32;;;;;;;3.78;3.40;;;10.30;99.90;;;;;;4922073;29;20200;-88
2024/02/20 00:35:58;;;;;;;4.60;3.00;;;10.30;99.90;;;;;;4927522;29;20217;-88
2024/02/20 00:38:23;;;;;;;4.43;4.03;;;10.00;99.90;;;;;;4931390;29;20450;-89
2024/02/20 00:40:49;;;;;;;5.07;3.73;;;9.90;99.90;;;;;;4927393;29;20450;-86
2024/02/20 00:43:14;;;;;;;6.40;3.10;;;10.00;99.90;;;;;;4929555;29;20722;-87
2024/02/20 00:45:40;;;;;;;3.30;3.00;;;9.70;99.90;;;;;;4923945;29;20402;-87
2024/02/20 00:48:06;;;;;;;3.10;2.80;;;10.30;99.90;;;;;;4942262;29;20296;-87
2024/02/20 00:50:31;;;;;;;3.70;3.33;;;9.70;99.90;;;;;;4924400;29;20206;-87
2024/02/20 00:52:57;;;;;;;4.63;3.10;;;9.80;99.90;;;;;;4919640;29;20191;-87
2024/02/20 00:55:23;;;;;;;3.50;2.55;;;9.60;99.90;;;;;;4912500;29;20214;-88
2024/02/20 00:57:48;;;;;;;3.50;2.50;;;9.50;99.90;;;;;;4917250;29;20643;-88
2024/02/20 01:00:14;;;;;;;2.83;2.40;;;9.70;99.90;;;;;;4916872;29;20747;-88
2024/02/20 01:02:40;;;;;;;4.13;2.50;;;9.70;99.90;;;;;;4915824;29;20223;-88
2024/02/20 01:05:07;;;;;;;2.63;2.43;;;9.90;99.90;;;;;;4915094;29;20475;-87
2024/02/20 01:07:33;;;;;;;2.90;2.50;;;9.60;99.90;;;;;;4917606;29;20438;-87
2024/02/20 01:09:58;;;;;;;3.13;2.50;;;9.30;99.90;;;;;;4916216;29;20214;-87
2024/02/20 01:12:24;;;;;;;3.27;2.50;;;10.20;99.90;;;;;;4914855;29;20226;-87
2024/02/20 01:14:49;;;;;;;3.33;2.80;;;9.70;99.90;;;;;;4915729;29;20281;-87
2024/02/20 01:17:15;;;;;;;3.87;2.40;;;9.70;99.90;;;;;;4913097;29;20614;-87
2024/02/20 01:19:43;;;;;;;3.23;2.60;;;9.70;99.90;;;;;;4913244;29;20251;-87
2024/02/20 01:22:09;;;;;;;2.20;1.90;;;10.00;99.90;;;;;;4920493;29;20228;-87
2024/02/20 01:24:34;;;;;;;2.73;2.50;;;10.20;99.90;;;;;;4920577;29;20215;-88
2024/02/20 01:27:00;;;;;;;4.53;2.13;;;10.20;99.90;;;;;;4919545;29;20213;-87
2024/02/20 01:29:25;;;;;;;2.30;2.10;;;9.80;99.90;;;;;;4920798;29;20656;-88
2024/02/20 01:31:51;;;;;;;3.77;2.50;;;10.30;99.90;;;;;;4921763;29;20287;-88
2024/02/20 01:34:16;;;;;;;2.30;2.00;;;9.50;99.90;;;;;;4925807;29;20182;-88
2024/02/20 01:36:42;;;;;;;2.80;2.10;;;10.20;99.90;;;;;;4913268;29;20215;-88
2024/02/20 01:39:07;;;;;;;3.00;2.40;;;9.90;99.90;;;;;;4913416;29;20203;-88
2024/02/20 01:41:33;;;;;;;3.40;2.50;;;9.90;99.90;;;;;;4926284;29;20190;-88
2024/02/20 01:43:58;;;;;;;2.93;2.03;;;10.00;99.90;;;;;;4918995;29;20314;-89
2024/02/20 01:46:24;;;;;;;2.70;2.30;;;9.30;99.90;;;;;;4916052;29;20222;-88
2024/02/20 01:48:50;;;;;;;2.80;2.30;;;9.60;99.90;;;;;;4915010;29;20195;-88
2024/02/20 01:51:17;;;;;;;3.08;2.35;;;9.70;99.90;;;;;;4928199;29;20428;-88
2024/02/20 01:53:45;;;;;;;2.60;2.40;;;9.50;99.90;;;;;;4916764;29;20183;-88
2024/02/20 01:56:13;;;;;;;3.10;2.13;;;9.20;99.90;;;;;;4924000;29;20321;-88
2024/02/20 01:58:40;;;;;;;4.00;2.40;;;9.80;99.90;;;;;;4915249;29;20585;-89
2024/02/20 02:01:05;;;;;;;2.97;2.53;;;9.60;99.90;;;;;;4921321;29;20190;-89
2024/02/20 02:03:31;;;;;;;3.13;2.70;;;9.70;99.90;;;;;;4912573;29;20208;-89
2024/02/20 02:05:57;;;;;;;4.15;2.60;;;9.80;99.90;;;;;;4912359;29;20222;-89
2024/02/20 02:08:22;;;;;;;4.10;2.60;;;10.00;99.90;;;;;;4913617;29;20190;-88
2024/02/20 02:10:48;;;;;;;2.40;2.20;;;10.00;99.90;;;;;;4917376;29;20194;-88
2024/02/20 02:13:15;;;;;;;3.43;2.83;;;9.40;99.90;;;;;;4915265;29;20205;-89
2024/02/20 02:15:41;;;;;;;4.53;2.65;;;9.70;99.90;;;;;;4915360;29;20213;-88
2024/02/20 02:18:06;;;;;;;4.80;2.30;;;10.30;99.90;;;;;;4911955;29;20191;-88
2024/02/20 02:20:32;;;;;;;3.43;2.07;;;9.90;99.90;;;;;;4915648;29;20455;-89
2024/02/20 02:22:57;;;;;;;3.93;2.50;;;9.60;99.90;;;;;;4922557;29;20215;-88
2024/02/20 02:25:24;;;;;;;2.90;2.40;;;9.70;99.90;;;;;;4906033;29;20730;-89
2024/02/20 02:27:49;;;;;;;5.15;2.63;;;10.60;99.90;;;;;;4913274;29;20184;-88
2024/02/20 02:30:15;;;;;;;3.27;2.10;;;9.70;99.90;;;;;;4909186;29;20193;-89
2024/02/20 02:32:41;;;;;;;2.70;2.20;;;9.60;99.90;;;;;;4916442;29;20283;-88
2024/02/20 02:35:09;;;;;;;3.03;2.50;;;9.90;99.90;;;;;;4915439;29;20298;-88
2024/02/20 02:37:37;;;;;;;5.97;2.80;;;9.70;99.90;;;;;;4913953;29;20709;-88
2024/02/20 02:40:06;;;;;;;3.53;2.38;;;9.60;99.90;;;;;;4928158;29;20215;-88
2024/02/20 02:42:32;;;;;;;2.88;2.45;;;9.90;99.90;;;;;;4913224;29;20210;-88
2024/02/20 02:44:58;;;;;;;3.93;2.30;;;9.10;99.90;;;;;;4912582;29;20225;-88
2024/02/20 02:47:23;;;;;;;3.43;2.30;;;9.40;99.90;;;;;;4911464;29;20201;-88
2024/02/20 02:49:49;;;;;;;4.43;2.97;;;9.20;99.90;;;;;;4908739;29;20203;-88
2024/02/20 02:52:16;;;;;;;3.33;2.10;;;9.70;99.90;;;;;;4914574;29;20193;-88
2024/02/20 02:54:41;;;;;;;2.83;2.22;;;9.30;99.90;;;;;;4908027;29;20194;-89
2024/02/20 02:57:07;;;;;;;3.20;2.00;;;9.40;99.90;;;;;;4915976;29;20575;-88
2024/02/20 02:59:33;;;;;;;4.87;3.10;;;9.70;99.90;;;;;;4908108;29;20197;-88
2024/02/20 03:02:00;;;;;;;2.40;2.20;;;9.70;99.90;;;;;;4919554;29;20416;-88
2024/02/20 03:04:26;;;;;;;4.95;2.67;;;9.60;99.90;;;;;;4913497;29;20188;-88
2024/02/20 03:06:53;;;;;;;7.07;2.63;;;10.10;99.90;;;;;;4917465;29;20664;-89
2024/02/20 03:09:21;;;;;;;2.30;2.10;;;9.20;99.90;;;;;;4913618;29;20453;-88
2024/02/20 03:11:47;;;;;;;4.00;2.50;;;9.80;99.90;;;;;;4911671;29;20243;-89
2024/02/20 03:14:13;;;;;;;4.00;2.33;;;9.70;99.90;;;;;;4912262;29;20192;-89
2024/02/20 03:16:39;;;;;;;4.90;2.45;;;9.60;99.90;;;;;;4907324;29;20218;-88
2024/02/20 03:19:04;;;;;;;5.07;2.70;;;9.50;99.90;;;;;;4912083;29;20667;-88
2024/02/20 03:21:31;;;;;;;3.57;2.43;;;9.40;99.90;;;;;;4912530;29;20739;-88
2024/02/20 03:23:57;;;;;;;4.38;2.63;;;9.70;99.90;;;;;;4915837;29;20429;-88
2024/02/20 03:26:22;;;;;;;5.03;3.00;;;11.30;99.90;;;;;;4906235;29;20217;-89
2024/02/20 03:28:48;;;;;;;6.13;3.60;;;10.00;99.90;;;;;;4910870;29;20178;-88
2024/02/20 03:31:13;;;;;;;4.13;1.97;;;9.40;99.90;;;;;;4911236;29;20238;-89
2024/02/20 03:33:39;;;;;;;4.90;2.23;;;9.10;99.90;;;;;;4914572;29;20186;-89
2024/02/20 03:36:05;;;;;;;8.93;2.57;;;9.30;99.90;;;;;;4914832;29;20588;-89
2024/02/20 03:38:31;;;;;;;2.72;2.15;;;9.40;99.90;;;;;;4916215;29;20194;-89
2024/02/20 03:40:56;;;;;;;7.70;3.73;;;9.60;99.90;;;;;;4913037;29;20208;-88
2024/02/20 03:43:22;;;;;;;5.20;2.50;;;9.10;99.90;;;;;;4917699;29;20182;-88
2024/02/20 03:45:48;;;;;;;5.60;2.70;;;9.20;99.90;;;;;;4911665;29;20230;-89
2024/02/20 03:48:13;;;;;;;8.50;3.03;;;9.40;99.90;;;;;;4915119;29;20491;-89
2024/02/20 03:50:39;;;;;;;4.60;3.10;;;9.40;99.90;;;;;;4917553;29;20256;-89
2024/02/20 03:53:05;;;;;;;6.10;2.87;;;9.60;99.90;;;;;;4919909;29;20224;-89
2024/02/20 03:55:31;;;;;;;7.40;2.55;;;9.50;99.90;;;;;;4933835;28;20210;-89
2024/02/20 03:57:57;;;;;;;3.63;2.20;;;8.90;99.90;;;;;;4933900;29;20192;-88
2024/02/20 04:00:26;;;;;;;6.50;2.40;;;9.40;99.90;;;;;;4931365;29;20426;-89
2024/02/20 04:02:53;;;;;;;2.85;2.00;;;9.10;99.90;;;;;;4927532;29;20217;-89
2024/02/20 04:05:19;;;;;;;4.10;2.53;;;9.30;99.90;;;;;;4914545;29;20225;-89
2024/02/20 04:07:45;;;;;;;4.43;2.73;;;9.50;99.90;;;;;;4910282;29;20183;-89
2024/02/20 04:10:12;;;;;;;3.55;2.38;;;9.40;99.90;;;;;;4912017;29;20190;-89
2024/02/20 04:12:38;;;;;;;2.97;2.35;;;9.30;99.90;;;;;;4915305;29;20701;-88
2024/02/20 04:15:08;;;;;;;5.50;2.45;;;9.20;99.90;;;;;;4915494;29;20215;-89
2024/02/20 04:17:35;;;;;;;4.53;2.72;;;9.10;99.90;;;;;;4913654;29;20193;-89
2024/02/20 04:20:03;;;;;;;6.80;2.42;;;9.10;99.90;;;;;;4914296;29;20675;-88
2024/02/20 04:22:30;;;;;;;6.60;3.10;;;9.00;99.90;;;;;;4914461;29;20261;-88
2024/02/20 04:24:56;;;;;;;5.43;2.42;;;9.00;99.90;;;;;;4915812;29;20219;-88
2024/02/20 04:27:22;;;;;;;3.17;2.30;;;9.00;99.90;;;;;;4916526;29;20186;-88
2024/02/20 04:29:47;;;;;;;4.50;2.40;;;8.90;99.90;;;;;;4912801;29;20193;-88
2024/02/20 04:32:13;;;;;;;4.97;2.50;;;8.40;99.90;;;;;;4916844;29;20185;-87
2024/02/20 04:34:39;;;;;;;7.83;2.57;;;8.90;99.90;;;;;;4911039;29;20198;-88
2024/02/20 04:37:04;;;;;;;4.80;2.60;;;9.20;99.90;;;;;;4916169;29;20190;-88
2024/02/20 04:39:30;;;;;;;5.73;2.43;;;9.00;99.90;;;;;;4909048;29;20195;-88
2024/02/20 04:41:56;;;;;;;3.30;3.00;;;8.90;99.90;;;;;;4917340;29;20199;-88
2024/02/20 04:44:22;;;;;;;4.20;2.50;;;8.70;99.90;;;;;;4917654;29;20286;-87
2024/02/20 04:46:47;;;;;;;4.85;2.15;;;8.90;99.90;;;;;;4915357;29;20205;-88
2024/02/20 04:49:13;;;;;;;5.77;3.00;;;9.10;99.90;;;;;;4915069;29;20198;-88
2024/02/20 04:51:38;;;;;;;3.63;2.03;;;9.30;99.90;;;;;;4918402;29;20185;-88
2024/02/20 04:54:04;;;;;;;5.77;2.20;;;8.80;99.90;;;;;;4916717;29;20202;-88
2024/02/20 04:56:29;;;;;;;6.33;2.43;;;9.20;99.90;;;;;;4915125;29;20305;-88
2024/02/20 04:58:55;;;;;;;6.00;2.40;;;8.80;99.90;;;;;;4909651;29;20201;-88
2024/02/20 05:01:23;;;;;;;6.80;3.63;;;9.40;99.90;;;;;;4915569;29;20209;-88
2024/02/20 05:03:49;;;;;;;5.65;2.30;;;9.00;99.90;;;;;;4912196;29;20194;-88
2024/02/20 05:06:15;;;;;;;5.75;3.15;;;9.00;99.90;;;;;;4918618;29;20238;-89
2024/02/20 05:08:41;;;;;;;8.27;2.23;;;8.80;99.90;;;;;;4913934;29;20201;-88
2024/02/20 05:11:06;;;;;;;11.90;2.87;;;9.00;99.90;;;;;;4910894;29;20428;-88
2024/02/20 05:13:32;;;;;;;5.70;2.63;;;8.90;99.90;;;;;;4917460;29;20213;-88
2024/02/20 05:15:57;;;;;;;4.80;2.27;;;8.60;99.90;;;;;;4915299;29;20226;-87
2024/02/20 05:18:23;;;;;;;3.83;2.13;;;9.10;99.90;;;;;;4914006;29;20194;-88
2024/02/20 05:20:49;;;;;;;7.20;3.10;;;9.20;99.90;;;;;;4912760;29;20198;-87
2024/02/20 05:23:15;;;;;;;5.30;2.42;;;9.00;99.90;;;;;;4917907;29;20296;-87
2024/02/20 05:25:41;;;;;;;7.43;2.33;;;8.70;99.90;;;;;;4917828;29;20253;-87
2024/02/20 05:28:06;;;;;;;5.07;2.90;;;9.20;99.90;;;;;;4922320;29;20219;-88
2024/02/20 05:30:32;;;;;;;7.00;3.13;;;8.90;99.90;;;;;;4910401;29;20194;-89
2024/02/20 05:32:57;;;;;;;4.77;2.70;;;8.70;99.90;;;;;;4912179;29;20200;-87
2024/02/20 05:35:23;;;;;;;5.60;2.40;;;9.30;99.90;;;;;;4914919;29;20233;-88
2024/02/20 05:37:48;;;;;;;4.67;2.73;;;8.90;99.90;;;;;;4911830;29;20194;-89
2024/02/20 05:40:14;;;;;;;4.30;3.43;;;8.80;99.90;;;;;;4914031;29;20201;-87
2024/02/20 05:42:40;;;;;;;6.47;2.97;;;8.90;99.90;;;;;;4912256;29;20204;-89
2024/02/20 05:45:07;;;;;;;3.83;2.10;;;9.20;99.90;;;;;;4910192;29;20269;-87
2024/02/20 05:47:33;;;;;;;6.00;2.30;;;8.90;99.90;;;;;;4912343;29;20226;-88
2024/02/20 05:49:59;;;;;;;12.43;2.93;;;8.90;99.90;;;;;;4912460;29;20194;-88
2024/02/20 05:52:24;;;;;;;9.03;2.80;;;8.90;99.90;;;;;;4915324;29;20678;-88
2024/02/20 05:54:50;;;;;;;5.53;3.03;;;8.90;99.90;;;;;;4917293;29;20367;-88
2024/02/20 05:57:15;;;;;;;9.67;3.20;;;8.80;99.90;;;;;;4912597;29;20197;-89
2024/02/20 05:59:41;;;;;;;5.37;2.63;;;8.80;99.90;;;;;;4908424;29;20202;-88
2024/02/20 06:02:06;;;;;;;9.20;3.97;;;8.60;99.90;;;;;;4912876;29;20202;-88
2024/02/20 06:04:32;;;;;;;6.50;3.43;;;9.00;99.90;;;;;;4917756;29;20203;-88
2024/02/20 06:06:57;;;;;;;6.03;2.70;;;9.00;99.90;;;;;;4911784;29;20226;-89
2024/02/20 06:09:23;;;;;;;6.10;2.83;;;8.80;99.90;;;;;;4913698;29;20197;-88
2024/02/20 06:11:48;;;;;;;10.90;3.30;;;8.80;99.90;;;;;;4909776;29;20189;-88
2024/02/20 06:14:14;;;;;;;3.60;2.50;;;8.80;99.90;;;;;;4911265;29;20548;-88
2024/02/20 06:16:41;;;;;;;9.10;2.97;;;8.70;99.90;;;;;;4909530;29;20591;-88
2024/02/20 06:19:07;;;;;;;5.72;2.90;;;8.80;99.90;;;;;;4914731;29;20193;-88
2024/02/20 06:21:33;;;;;;;6.28;2.75;;;9.00;99.90;;;;;;4912695;29;20190;-88
2024/02/20 06:23:59;;;;;;;7.90;2.67;;;9.20;99.90;;;;;;4917615;29;20198;-88
2024/02/20 06:26:24;;;;;;;10.40;3.77;;;8.70;99.90;;;;;;4912130;29;20225;-88
2024/02/20 06:28:51;;;;;;;5.10;2.10;;;8.60;99.90;;;;;;4914259;29;20496;-87
2024/02/20 06:31:17;;;;;;;3.80;2.80;;;;;;;;;;4913279;29;20250;-89
2024/02/20 06:33:43;;;;;;;8.00;2.67;;;8.60;99.90;;;;;;4927576;29;20255;-89
2024/02/20 06:36:09;;;;;;;5.40;2.75;;;9.70;99.90;;;;;;4933204;29;20222;-89
2024/02/20 06:38:36;;;;;;;7.40;2.70;;;8.60;99.90;;;;;;4935861;29;20205;-88
2024/02/20 06:41:02;;;;;;;5.78;3.05;;;11.30;99.90;;;;;;4933246;29;20199;-88
2024/02/20 06:43:28;;;;;;;7.30;2.27;;;;;;;;;;4912027;29;20261;-87
2024/02/20 06:45:54;;;;;;;5.85;2.67;;;8.80;99.90;;;;;;4910818;29;20217;-84
2024/02/20 06:48:20;;;;;;;9.25;3.00;;;8.70;99.90;;;;;;4921846;29;20210;-85
2024/02/20 06:50:46;;;;;;;6.38;2.85;;;8.80;99.90;;;;;;4925264;29;20695;-85
2024/02/20 06:53:11;;;;;;;5.20;2.40;;;8.50;99.90;;;;;;4921181;29;20380;-86
2024/02/20 06:55:37;;;;;;;12.07;3.63;;;8.80;99.90;;;;;;4917571;29;20221;-84
2024/02/20 06:58:03;;;;;;;5.30;2.47;;;8.90;99.90;;;;;;4921548;29;20226;-86
2024/02/20 07:00:28;;;;;;;6.03;2.47;;;8.60;99.90;;;;;;4915370;29;20189;-85
2024/02/20 07:02:54;;;;;;;4.00;3.17;;;8.30;99.90;;;;;;4919363;29;20221;-85
2024/02/20 07:05:19;;;;;;;7.53;2.30;;;8.60;99.90;;;;;;4917476;29;20648;-85
2024/02/20 07:07:45;;;;;;;5.30;2.77;;;9.20;99.90;;;;;;4917579;29;20206;-84
2024/02/20 07:10:11;;;;;;;3.87;2.13;;;9.10;99.90;;;;;;4917937;29;20218;-85
2024/02/20 07:12:36;;;;;;;4.57;3.17;;;8.70;99.90;;;;;;4919085;29;20186;-84
2024/02/20 07:15:05;;;;;;;5.87;3.20;;;8.80;99.90;;;;;;4914689;29;20477;-86
2024/02/20 07:17:30;;;;;;;8.43;2.90;;;8.80;99.90;;;;;;4916537;29;20188;-86
2024/02/20 07:19:56;;;;;;;5.60;2.60;;;9.30;99.90;;;;;;4914523;29;20639;-86
2024/02/20 07:22:23;;;;;;;4.80;2.07;;;9.40;99.90;;;;;;4915413;29;20194;-84
2024/02/20 07:24:48;;;;;;;7.25;3.15;;;9.00;99.90;;;;;;4913291;29;20209;-89
2024/02/20 07:27:14;;;;;;;8.77;2.50;;;9.00;99.90;;;;;;4917904;29;20193;-90
2024/02/20 07:29:41;;;;;;;3.07;2.30;;;8.90;99.90;;;;;;4919835;29;20190;-89
2024/02/20 07:32:08;;;;;;;5.80;2.92;;;8.90;99.90;;;;;;4921332;29;20657;-91
2024/02/20 07:34:34;;;;;;;8.15;2.67;;;8.70;99.90;;;;;;4917867;29;20183;-90
2024/02/20 07:36:59;;;;;;;4.40;2.60;;;9.10;99.90;;;;;;4911370;29;20213;-90
2024/02/20 07:39:25;;;;;;;12.73;3.03;;;8.80;99.90;;;;;;4910456;29;20183;-89
2024/02/20 07:41:51;;;;;;;8.20;2.67;;;8.90;99.90;;;;;;4911657;29;20191;-89
2024/02/20 07:44:17;;;;;;;4.35;2.70;;;9.00;99.90;;;;;;4921315;29;20218;-93
2024/02/20 07:46:42;;;;;;;6.03;2.77;;;8.60;99.90;;;;;;4934952;29;20225;-93
2024/02/20 07:49:08;;;;;;;12.00;3.07;;;9.10;99.90;;;;;;4925717;29;20241;-92
2024/02/20 07:51:34;;;;;;;9.57;4.37;;;9.30;99.90;;;;;;4924243;29;20186;-89
2024/02/20 07:54:00;;;;;;;7.20;2.57;;;9.50;99.90;;;;;;4917920;29;20203;-90
2024/02/20 07:56:27;;;;;;;8.20;4.00;;;9.40;99.90;;;;;;4916179;29;20493;-90
2024/02/20 07:58:53;;;;;;;8.55;3.45;;;9.30;99.90;;;;;;4917141;29;20565;-88
2024/02/20 08:01:19;;;;;;;8.37;3.17;;;9.90;99.90;;;;;;4925009;29;20301;-88
2024/02/20 08:03:48;;;;;;;6.32;3.58;;;9.80;99.90;;;;;;4921230;29;20250;-85
2024/02/20 08:06:17;;;;;;;6.95;2.65;;;10.10;99.90;;;;;;4917121;29;20234;-86
2024/02/20 08:08:42;;;;;;;10.63;3.67;;;10.10;99.90;;;;;;4921560;29;20223;-88
2024/02/20 08:11:14;;;;;;;8.63;3.00;;;10.10;99.90;;;;;;4918299;29;20188;-89
2024/02/20 08:13:45;;;;;;;4.22;2.30;;;10.20;99.90;;;;;;4937661;29;21370;-90
2024/02/20 15:27:17;;;;;;;4.60;2.05;;;12.30;90.20;;;;;;5865200;23;20346;-92
2024/02/20 15:30:24;;;;;;;5.63;3.20;;;12.30;90.60;;;;;;4925284;28;20193;-90
2024/02/20 15:32:50;;;;;;;3.72;2.65;;;12.70;91.10;;;;;;4920513;29;20211;-90
2024/02/20 15:35:18;;;;;;;5.40;2.40;;;;;;;;;;4928868;29;20214;-90
2024/02/20 15:37:45;;;;;;;3.78;2.60;;;;;;;;;;4924929;29;20194;-90
2024/02/20 15:40:16;;;;;;;4.50;2.20;;;11.90;90.40;;;;;;4948359;29;20311;-90
2024/02/20 15:46:26;;;;;;;3.35;2.15;;;11.90;90.10;;;;;;4842391;29;20228;-91
